createdAt,value
2023-11-26T10:18:45.312Z,4.90
2023-11-26T10:21:12.408Z,5.10
2023-11-26T10:23:39.657Z,5.20
2023-11-26T10:26:20.399Z,5.40
2023-11-26T10:29:00.718Z,5.60
2023-11-26T10:31:27.809Z,5.70
2023-11-26T10:34:08.939Z,5.80
2023-11-26T10:36:36.099Z,5.90
2023-11-26T10:39:04.051Z,6.00
2023-11-26T10:41:34.815Z,6.10
2023-11-26T10:44:02.438Z,6.10
2023-11-26T10:46:34.285Z,6.10
2023-11-26T10:49:12.434Z,6.20
2023-11-26T10:51:41.974Z,6.20
2023-11-26T10:54:18.050Z,6.20
2023-11-26T10:56:50.837Z,6.20
2023-11-26T10:59:19.625Z,6.20
2023-11-26T11:01:47.710Z,6.20
2023-11-26T11:04:16.710Z,6.20
2023-11-26T11:06:45.167Z,6.20
2023-11-26T11:09:24.876Z,6.10
2023-11-26T11:11:59.477Z,6.00
2023-11-26T11:14:28.994Z,5.90
2023-11-26T11:16:56.117Z,5.80
2023-11-26T11:19:49.103Z,5.80
2023-11-26T11:22:16.226Z,5.70
2023-11-26T11:24:43.482Z,5.70
2023-11-26T11:27:10.596Z,5.70
2023-11-26T11:29:37.687Z,5.70
2023-11-26T11:32:05.821Z,5.60
2023-11-26T11:34:33.902Z,5.60
2023-11-26T11:37:02.850Z,5.50
2023-11-26T11:39:45.896Z,5.60
2023-11-26T11:42:15.147Z,5.60
2023-11-26T11:44:43.746Z,5.70
2023-11-26T11:47:12.106Z,5.60
2023-11-26T11:50:05.614Z,5.60
2023-11-26T11:52:34.280Z,5.60
2023-11-26T11:55:44.310Z,5.60
2023-11-26T11:58:15.032Z,5.60
2023-11-26T12:00:44.789Z,5.50
2023-11-26T12:03:17.572Z,5.50
2023-11-26T12:05:47.483Z,5.40
2023-11-26T12:08:16.529Z,5.30
2023-11-26T12:10:44.495Z,5.30
2023-11-26T12:13:12.015Z,5.30
2023-11-26T12:15:39.400Z,5.20
2023-11-26T12:18:06.851Z,5.20
2023-11-26T12:20:34.131Z,5.10
2023-11-26T12:23:01.187Z,5.10
2023-11-26T12:25:30.099Z,5.10
2023-11-26T12:28:05.688Z,5.20
2023-11-26T12:30:34.203Z,5.10
2023-11-26T12:33:01.793Z,5.10
2023-11-26T12:35:30.107Z,5.10
2023-11-26T12:37:58.336Z,5.10
2023-11-26T12:40:26.117Z,5.10
2023-11-26T12:42:54.772Z,5.10
2023-11-26T12:45:21.822Z,5.10
2023-11-26T12:47:53.193Z,5.10
2023-11-26T12:50:20.784Z,5.00
2023-11-26T12:52:48.524Z,5.00
2023-11-26T12:55:16.119Z,5.10
2023-11-26T12:57:45.079Z,5.10
2023-11-26T13:00:15.673Z,5.10
2023-11-26T13:02:45.640Z,5.10
2023-11-26T13:05:27.490Z,5.20
2023-11-26T13:07:55.731Z,5.20
2023-11-26T13:10:42.848Z,5.30
2023-11-26T13:13:12.837Z,5.30
2023-11-26T13:15:41.345Z,5.30
2023-11-26T13:18:09.035Z,5.30
2023-11-26T13:20:36.018Z,5.30
2023-11-26T13:23:04.157Z,5.30
2023-11-26T13:25:31.168Z,5.20
2023-11-26T13:27:58.221Z,5.10
2023-11-26T13:30:25.212Z,5.10
2023-11-26T13:32:53.667Z,5.10
2023-11-26T13:35:20.652Z,5.00
2023-11-26T13:37:47.509Z,4.90
2023-11-26T13:40:14.643Z,4.80
2023-11-26T13:42:41.623Z,4.80
2023-11-26T13:45:13.418Z,4.70
2023-11-26T13:47:52.130Z,4.70
2023-11-26T13:50:25.824Z,4.60
2023-11-26T13:52:52.886Z,4.60
2023-11-26T13:55:19.823Z,4.60
2023-11-26T13:57:46.819Z,4.50
2023-11-26T14:00:15.069Z,4.40
2023-11-26T14:02:42.740Z,4.40
2023-11-26T14:05:09.770Z,4.40
2023-11-26T14:07:40.522Z,4.40
2023-11-26T14:10:09.747Z,4.40
2023-11-26T14:12:37.108Z,4.30
2023-11-26T14:15:05.231Z,4.30
2023-11-26T14:17:32.216Z,4.30
2023-11-26T14:19:59.754Z,4.20
2023-11-26T14:22:26.736Z,4.20
2023-11-26T14:24:55.246Z,4.10
2023-11-26T14:27:22.310Z,4.00
2023-11-26T14:29:49.334Z,4.00
2023-11-26T14:32:16.334Z,3.90
2023-11-26T14:34:43.373Z,3.90
2023-11-26T14:37:10.504Z,3.80
2023-11-26T14:39:37.652Z,3.80
2023-11-26T14:42:06.716Z,3.80
2023-11-26T14:44:33.696Z,3.80
2023-11-26T14:47:00.858Z,3.80
2023-11-26T14:49:27.878Z,3.80
2023-11-26T14:51:54.896Z,3.70
2023-11-26T14:54:21.888Z,3.70
2023-11-26T14:56:48.873Z,3.70
2023-11-26T14:59:17.244Z,3.70
2023-11-26T15:01:48.631Z,3.70
2023-11-26T15:04:18.717Z,3.70
2023-11-26T15:06:45.797Z,3.60
2023-11-26T15:09:12.928Z,3.60
2023-11-26T15:11:39.918Z,3.60
2023-11-26T15:14:06.847Z,3.60
2023-11-26T15:16:35.448Z,3.60
2023-11-26T15:19:02.426Z,3.60
2023-11-26T15:21:29.550Z,3.50
2023-11-26T15:23:56.470Z,3.50
2023-11-26T15:26:23.436Z,3.50
2023-11-26T15:28:50.476Z,3.50
2023-11-26T15:31:17.748Z,3.40
2023-11-26T15:33:46.346Z,3.40
2023-11-26T15:36:15.932Z,3.40
2023-11-26T15:38:42.854Z,3.40
2023-11-26T15:41:16.901Z,3.40
2023-11-26T15:43:43.926Z,3.30
2023-11-26T15:46:11.033Z,3.30
2023-11-26T15:48:40.796Z,3.30
2023-11-26T15:51:10.447Z,3.30
2023-11-26T15:53:37.390Z,3.30
2023-11-26T15:56:05.537Z,3.30
2023-11-26T15:58:32.645Z,3.30
2023-11-26T16:00:59.730Z,3.20
2023-11-26T16:03:26.886Z,3.20
2023-11-26T16:05:54.395Z,3.20
2023-11-26T16:08:22.787Z,3.20
2023-11-26T16:10:50.002Z,3.20
2023-11-26T16:13:17.089Z,3.20
2023-11-26T16:15:44.141Z,3.20
2023-11-26T16:18:11.248Z,3.20
2023-11-26T16:20:38.264Z,3.20
2023-11-26T16:23:05.340Z,3.20
2023-11-26T16:25:36.811Z,3.20
2023-11-26T16:28:04.263Z,3.20
2023-11-26T16:30:31.321Z,3.20
2023-11-26T16:32:58.325Z,3.20
2023-11-26T16:35:25.357Z,3.30
2023-11-26T16:37:53.147Z,3.30
2023-11-26T16:40:20.258Z,3.20
2023-11-26T16:42:48.710Z,3.30
2023-11-26T16:45:15.746Z,3.30
2023-11-26T16:47:42.794Z,3.30
2023-11-26T16:50:12.763Z,3.30
2023-11-26T16:52:42.176Z,3.30
2023-11-26T16:55:09.871Z,3.30
2023-11-26T16:57:39.538Z,3.30
2023-11-26T17:00:11.797Z,3.30
2023-11-26T17:02:39.098Z,3.30
2023-11-26T17:05:07.690Z,3.20
2023-11-26T17:07:35.023Z,3.20
2023-11-26T17:10:02.039Z,3.20
2023-11-26T17:12:29.107Z,3.20
2023-11-26T17:14:56.132Z,3.20
2023-11-26T17:17:25.199Z,3.20
2023-11-26T17:19:52.290Z,3.20
2023-11-26T17:22:19.337Z,3.20
2023-11-26T17:24:46.261Z,3.20
2023-11-26T17:27:13.245Z,3.20
2023-11-26T17:29:40.311Z,3.20
2023-11-26T17:32:07.931Z,3.20
2023-11-26T17:34:36.354Z,3.20
2023-11-26T17:37:03.444Z,3.20
2023-11-26T17:39:30.495Z,3.10
2023-11-26T17:41:57.514Z,3.10
2023-11-26T17:44:24.475Z,3.10
2023-11-26T17:46:51.567Z,3.10
2023-11-26T17:49:18.568Z,3.10
2023-11-26T17:51:46.949Z,3.10
2023-11-26T17:54:14.121Z,3.10
2023-11-26T17:56:41.106Z,3.10
2023-11-26T17:59:08.238Z,3.10
2023-11-26T18:01:35.482Z,3.10
2023-11-26T18:04:02.815Z,3.10
2023-11-26T18:06:29.941Z,3.10
2023-11-26T18:08:58.396Z,3.10
2023-11-26T18:11:25.386Z,3.10
2023-11-26T18:13:52.447Z,3.10
2023-11-26T18:16:19.542Z,3.00
2023-11-26T18:18:46.597Z,3.00
2023-11-26T18:21:13.573Z,3.00
2023-11-26T18:23:40.593Z,3.00
2023-11-26T18:26:11.547Z,3.00
2023-11-26T18:28:39.913Z,3.00
2023-11-26T18:31:07.124Z,2.90
2023-11-26T18:33:34.268Z,2.90
2023-11-26T18:36:01.277Z,2.90
2023-11-26T18:38:28.232Z,2.80
2023-11-26T18:40:55.220Z,2.80
2023-11-26T18:43:23.565Z,2.80
2023-11-26T18:45:53.974Z,2.90
2023-11-26T18:48:21.053Z,2.80
2023-11-26T18:50:48.009Z,2.90
2023-11-26T18:53:14.948Z,2.90
2023-11-26T18:55:42.019Z,2.90
2023-11-26T18:58:09.063Z,2.90
2023-11-26T19:00:37.512Z,2.90
2023-11-26T19:03:04.715Z,2.90
2023-11-26T19:05:31.841Z,2.90
2023-11-26T19:07:58.965Z,2.90
2023-11-26T19:10:25.960Z,2.90
2023-11-26T19:12:52.909Z,2.90
2023-11-26T19:15:19.907Z,2.90
2023-11-26T19:17:48.292Z,3.00
2023-11-26T19:20:15.606Z,3.00
2023-11-26T19:22:42.650Z,3.00
2023-11-26T19:25:10.483Z,3.00
2023-11-26T19:27:37.564Z,3.00
2023-11-26T19:30:06.129Z,3.00
2023-11-26T19:32:33.258Z,3.00
2023-11-26T19:35:01.644Z,3.00
2023-11-26T19:37:28.763Z,3.00
2023-11-26T19:39:55.731Z,3.00
2023-11-26T19:42:22.984Z,3.00
2023-11-26T19:44:50.000Z,3.00
2023-11-26T19:47:17.111Z,3.00
2023-11-26T19:49:44.262Z,3.00
2023-11-26T19:52:12.702Z,3.00
2023-11-26T19:54:39.810Z,3.00
2023-11-26T19:57:06.845Z,3.00
2023-11-26T19:59:35.531Z,3.00
2023-11-26T20:02:02.770Z,3.00
2023-11-26T20:04:29.840Z,3.00
2023-11-26T20:06:56.924Z,2.90
2023-11-26T20:09:25.317Z,2.90
2023-11-26T20:11:52.333Z,2.90
2023-11-26T20:14:19.378Z,2.90
2023-11-26T20:16:46.543Z,2.90
2023-11-26T20:19:13.843Z,2.90
2023-11-26T20:21:41.706Z,2.90
2023-11-26T20:24:09.250Z,2.90
2023-11-26T20:26:37.650Z,2.90
2023-11-26T20:29:04.681Z,2.90
2023-11-26T20:31:31.741Z,2.90
2023-11-26T20:33:58.907Z,2.90
2023-11-26T20:36:26.039Z,2.90
2023-11-26T20:38:53.097Z,2.90
2023-11-26T20:41:20.468Z,3.00
2023-11-26T20:43:48.857Z,3.00
2023-11-26T20:46:20.027Z,3.00
2023-11-26T20:48:47.222Z,3.00
2023-11-26T20:51:18.656Z,3.00
2023-11-26T20:53:47.708Z,3.00
2023-11-26T20:56:22.847Z,3.00
2023-11-26T20:58:51.336Z,3.00
2023-11-26T21:01:18.434Z,3.00
2023-11-26T21:03:45.713Z,3.00
2023-11-26T21:06:13.091Z,3.00
2023-11-26T21:08:40.409Z,3.00
2023-11-26T21:11:09.684Z,3.00
2023-11-26T21:13:38.658Z,3.00
2023-11-26T21:16:08.113Z,3.00
2023-11-26T21:18:35.431Z,3.00
2023-11-26T21:21:02.571Z,3.00
2023-11-26T21:23:29.724Z,3.00
2023-11-26T21:25:56.801Z,3.00
2023-11-26T21:28:25.996Z,3.00
2023-11-26T21:30:53.073Z,3.00
2023-11-26T21:33:21.499Z,3.00
2023-11-26T21:35:48.506Z,3.00
2023-11-26T21:38:15.523Z,3.00
2023-11-26T21:40:47.842Z,3.00
2023-11-26T21:43:20.634Z,3.10
2023-11-26T21:45:47.654Z,3.10
2023-11-26T21:48:18.943Z,3.10
2023-11-26T21:50:47.700Z,3.10
2023-11-26T21:53:14.682Z,3.10
2023-11-26T21:55:41.727Z,3.10
2023-11-26T21:58:08.752Z,3.10
2023-11-26T22:00:35.892Z,3.10
2023-11-26T22:03:03.002Z,3.10
2023-11-26T22:05:29.913Z,3.10
2023-11-26T22:07:58.269Z,3.10
2023-11-26T22:10:25.216Z,3.10
2023-11-26T22:12:52.127Z,3.10
2023-11-26T22:15:19.476Z,3.10
2023-11-26T22:17:46.444Z,3.10
2023-11-26T22:20:13.849Z,3.10
2023-11-26T22:22:43.470Z,3.10
2023-11-26T22:25:12.644Z,3.10
2023-11-26T22:27:39.636Z,3.10
2023-11-26T22:30:11.358Z,3.10
2023-11-26T22:32:39.721Z,3.10
2023-11-26T22:35:09.736Z,3.10
2023-11-26T22:37:37.297Z,3.00
2023-11-26T22:40:16.342Z,3.00
2023-11-26T22:42:59.271Z,3.00
2023-11-26T22:45:33.698Z,3.00
2023-11-26T22:48:00.694Z,3.00
2023-11-26T22:50:29.036Z,3.00
2023-11-26T22:52:56.097Z,3.00
2023-11-26T22:55:23.019Z,3.00
2023-11-26T22:57:51.422Z,3.00
2023-11-26T23:00:18.664Z,3.10
2023-11-26T23:02:45.732Z,3.10
2023-11-26T23:05:12.831Z,3.10
2023-11-26T23:07:39.848Z,3.00
2023-11-26T23:10:08.342Z,3.00
2023-11-26T23:12:35.459Z,3.00
2023-11-26T23:15:04.528Z,3.00
2023-11-26T23:17:31.656Z,3.00
2023-11-26T23:19:58.732Z,3.10
2023-11-26T23:22:26.368Z,3.00
2023-11-26T23:24:53.342Z,3.10
2023-11-26T23:27:20.448Z,3.10
2023-11-26T23:29:47.374Z,3.10
2023-11-26T23:32:15.677Z,3.10
2023-11-26T23:34:42.885Z,3.10
2023-11-26T23:37:09.843Z,3.20
2023-11-26T23:39:36.781Z,3.20
2023-11-26T23:42:04.067Z,3.20
2023-11-26T23:44:31.000Z,3.30
2023-11-26T23:46:57.995Z,3.30
2023-11-26T23:49:26.399Z,3.30
2023-11-26T23:51:53.367Z,3.30
2023-11-26T23:54:20.384Z,3.30
2023-11-26T23:56:47.322Z,3.40
2023-11-26T23:59:14.229Z,3.40
